createdAt,value
2023-04-19T00:00:52.146Z,39.13
2023-04-19T00:01:55.866Z,40.38
2023-04-19T00:02:59.650Z,42.25
2023-04-19T00:04:03.568Z,37.78
2023-04-19T00:05:08.298Z,42.20
2023-04-19T00:06:12.039Z,39.87
2023-04-19T00:07:26.049Z,40.72
2023-04-19T00:08:29.989Z,41.75
2023-04-19T00:09:33.710Z,42.35
2023-04-19T00:10:37.483Z,43.20
2023-04-19T00:11:41.934Z,40.50
2023-04-19T00:12:46.364Z,42.38
2023-04-19T00:13:50.154Z,44.63
2023-04-19T00:14:55.425Z,42.30
2023-04-19T00:15:59.034Z,41.35
2023-04-19T00:17:02.726Z,40.60
2023-04-19T00:18:06.520Z,40.75
2023-04-19T00:19:10.350Z,42.42
2023-04-19T00:20:14.041Z,41.83
2023-04-19T00:21:17.683Z,38.90
2023-04-19T00:22:21.394Z,41.87
2023-04-19T00:23:25.218Z,38.60
2023-04-19T00:24:29.538Z,40.35
2023-04-19T00:25:33.133Z,44.45
2023-04-19T00:26:36.814Z,41.10
2023-04-19T00:27:40.602Z,41.53
2023-04-19T00:28:44.301Z,41.38
2023-04-19T00:29:48.052Z,41.35
2023-04-19T00:30:53.401Z,39.53
2023-04-19T00:31:57.125Z,41.30
2023-04-19T00:33:00.805Z,42.00
2023-04-19T00:34:04.568Z,41.35
2023-04-19T00:35:08.854Z,41.70
2023-04-19T00:36:12.519Z,41.58
2023-04-19T00:37:16.476Z,43.55
2023-04-19T00:38:20.114Z,45.67
2023-04-19T00:39:23.840Z,42.83
2023-04-19T00:40:27.645Z,41.60
2023-04-19T00:41:31.437Z,42.55
2023-04-19T00:42:35.093Z,41.58
2023-04-19T00:43:38.731Z,42.20
2023-04-19T00:44:43.334Z,43.70
2023-04-19T00:45:48.900Z,43.15
2023-04-19T00:46:54.771Z,44.17
2023-04-19T00:47:58.592Z,43.50
2023-04-19T00:49:02.358Z,43.57
2023-04-19T00:50:06.972Z,43.42
2023-04-19T00:51:11.399Z,44.30
2023-04-19T00:52:15.261Z,40.63
2023-04-19T00:53:18.934Z,44.80
2023-04-19T00:54:22.993Z,42.00
2023-04-19T00:55:26.796Z,42.95
2023-04-19T00:56:31.732Z,45.13
2023-04-19T00:57:35.535Z,42.60
2023-04-19T00:58:39.841Z,41.65
2023-04-19T00:59:43.745Z,42.57
2023-04-19T01:00:47.423Z,41.20
2023-04-19T01:01:51.242Z,41.75
2023-04-19T01:02:57.017Z,41.08
2023-04-19T01:04:01.669Z,43.25
2023-04-19T01:05:05.923Z,42.37
2023-04-19T01:06:09.735Z,42.65
2023-04-19T01:07:14.015Z,43.70
2023-04-19T01:08:17.755Z,43.42
2023-04-19T01:09:25.887Z,44.50
2023-04-19T01:10:29.885Z,45.30
2023-04-19T01:11:57.444Z,42.05
2023-04-19T01:13:01.235Z,45.03
2023-04-19T01:14:27.762Z,42.10
2023-04-19T01:15:31.933Z,38.75
2023-04-19T01:16:35.704Z,41.50
2023-04-19T01:17:39.927Z,41.47
2023-04-19T01:18:45.405Z,41.47
2023-04-19T01:19:49.150Z,42.03
2023-04-19T01:20:53.008Z,41.67
2023-04-19T01:21:56.663Z,43.00
2023-04-19T01:23:01.962Z,42.45
2023-04-19T01:24:05.951Z,43.50
2023-04-19T01:25:10.235Z,41.88
2023-04-19T01:26:13.882Z,41.75
2023-04-19T01:27:17.503Z,42.97
2023-04-19T01:28:21.104Z,40.55
2023-04-19T01:29:24.838Z,42.33
2023-04-19T01:30:28.620Z,42.70
2023-04-19T01:31:32.456Z,42.45
2023-04-19T01:32:36.176Z,39.83
2023-04-19T01:33:39.863Z,40.42
2023-04-19T01:34:43.562Z,38.30
2023-04-19T01:35:48.458Z,40.25
2023-04-19T01:36:52.239Z,39.20
2023-04-19T01:37:56.279Z,40.57
2023-04-19T01:39:01.695Z,41.95
2023-04-19T01:40:05.892Z,43.70
2023-04-19T01:41:09.621Z,41.90
2023-04-19T01:42:13.311Z,40.08
2023-04-19T01:43:19.021Z,40.63
2023-04-19T01:44:22.742Z,42.20
2023-04-19T01:45:26.371Z,41.75
2023-04-19T01:46:30.033Z,43.35
2023-04-19T01:47:33.716Z,41.35
2023-04-19T01:48:37.371Z,40.77
2023-04-19T01:49:41.108Z,38.53
2023-04-19T01:50:44.787Z,40.60
2023-04-19T01:51:48.485Z,40.60
2023-04-19T01:52:52.069Z,43.00
2023-04-19T01:53:55.794Z,39.70
2023-04-19T01:55:01.275Z,36.28
2023-04-19T01:56:05.126Z,37.67
2023-04-19T01:57:08.920Z,41.30
2023-04-19T01:58:12.681Z,39.53
2023-04-19T01:59:16.406Z,40.00
2023-04-19T02:00:20.574Z,41.13
2023-04-19T02:01:24.358Z,41.53
2023-04-19T02:02:28.227Z,41.55
2023-04-19T02:03:32.293Z,44.08
2023-04-19T02:04:36.473Z,43.60
2023-04-19T02:05:40.828Z,39.83
2023-04-19T02:06:44.522Z,41.50
2023-04-19T02:07:48.178Z,43.95
2023-04-19T02:08:51.930Z,39.25
2023-04-19T02:09:55.635Z,40.33
2023-04-19T02:11:01.017Z,39.72
2023-04-19T02:12:05.281Z,40.08
2023-04-19T02:13:09.002Z,42.45
2023-04-19T02:14:12.749Z,38.53
2023-04-19T02:15:16.526Z,40.23
2023-04-19T02:16:20.377Z,41.13
2023-04-19T02:17:24.275Z,39.22
2023-04-19T02:18:28.103Z,40.15
2023-04-19T02:19:31.865Z,41.90
2023-04-19T02:20:35.636Z,41.40
2023-04-19T02:21:39.299Z,38.97
2023-04-19T02:22:43.055Z,42.55
2023-04-19T02:23:46.856Z,39.22
2023-04-19T02:24:51.927Z,41.67
2023-04-19T02:25:55.635Z,42.63
2023-04-19T02:27:00.943Z,39.78
2023-04-19T02:28:04.670Z,38.85
2023-04-19T02:29:08.325Z,40.22
2023-04-19T02:30:12.895Z,39.95
2023-04-19T02:31:16.546Z,42.23
2023-04-19T02:32:20.363Z,41.85
2023-04-19T02:33:24.290Z,41.00
2023-04-19T02:34:29.617Z,41.75
2023-04-19T02:35:33.471Z,41.05
2023-04-19T02:36:37.172Z,39.50
2023-04-19T02:37:40.939Z,41.33
2023-04-19T02:38:44.560Z,41.50
2023-04-19T02:39:48.213Z,40.60
2023-04-19T02:40:51.976Z,42.47
2023-04-19T02:41:56.076Z,44.17
2023-04-19T02:43:01.496Z,44.83
2023-04-19T02:44:05.456Z,43.20
2023-04-19T02:45:10.285Z,42.25
2023-04-19T02:46:14.041Z,40.72
2023-04-19T02:47:17.801Z,43.77
2023-04-19T02:48:21.615Z,43.25
2023-04-19T02:49:25.297Z,43.03
2023-04-19T02:50:29.185Z,41.20
2023-04-19T02:51:32.936Z,43.85
2023-04-19T02:52:36.575Z,46.33
2023-04-19T02:53:40.571Z,44.10
2023-04-19T02:54:44.288Z,47.50
2023-04-19T02:55:48.080Z,45.80
2023-04-19T02:56:51.745Z,45.63
2023-04-19T02:57:55.571Z,42.63
2023-04-19T02:59:01.987Z,42.13
2023-04-19T03:00:06.600Z,44.35
2023-04-19T03:01:10.911Z,44.13
2023-04-19T03:02:14.769Z,43.28
2023-04-19T03:03:18.645Z,42.93
2023-04-19T03:04:22.426Z,42.50
2023-04-19T03:05:26.312Z,43.30
2023-04-19T03:06:30.015Z,42.53
2023-04-19T03:07:33.692Z,43.10
2023-04-19T03:08:37.384Z,42.63
2023-04-19T03:09:41.129Z,43.78
2023-04-19T03:10:44.968Z,43.63
2023-04-19T03:11:48.715Z,44.13
2023-04-19T03:12:52.436Z,43.60
2023-04-19T03:13:56.150Z,45.00
2023-04-19T03:15:01.497Z,47.70
2023-04-19T03:16:05.600Z,45.70
2023-04-19T03:17:09.258Z,45.58
2023-04-19T03:18:12.918Z,44.58
2023-04-19T03:19:16.667Z,45.37
2023-04-19T03:20:20.570Z,43.65
2023-04-19T03:21:24.234Z,46.65
2023-04-19T03:22:27.968Z,45.90
2023-04-19T03:23:31.704Z,45.65
2023-04-19T03:24:37.629Z,45.50
2023-04-19T03:25:41.967Z,45.85
2023-04-19T03:26:45.675Z,44.53
2023-04-19T03:27:49.393Z,45.17
2023-04-19T03:28:53.170Z,44.25
2023-04-19T03:29:57.479Z,44.07
2023-04-19T03:31:02.818Z,42.83
2023-04-19T03:32:06.767Z,43.95
2023-04-19T03:33:10.501Z,46.72
2023-04-19T03:34:14.422Z,45.88
2023-04-19T03:35:18.404Z,45.77
2023-04-19T03:36:22.199Z,45.55
2023-04-19T03:37:25.889Z,47.10
2023-04-19T03:38:34.344Z,46.67
2023-04-19T03:39:38.037Z,44.75
2023-04-19T03:40:41.795Z,47.07
2023-04-19T03:41:45.608Z,45.72
2023-04-19T03:42:49.274Z,47.80
2023-04-19T03:43:52.938Z,46.97
2023-04-19T03:44:56.613Z,48.08
2023-04-19T03:46:01.923Z,45.40
2023-04-19T03:47:05.696Z,47.35
2023-04-19T03:48:09.509Z,42.20
2023-04-19T03:49:13.273Z,45.08
2023-04-19T03:50:16.985Z,43.90
2023-04-19T03:51:20.647Z,44.23
2023-04-19T03:52:24.343Z,44.83
2023-04-19T03:53:28.196Z,43.55
2023-04-19T03:54:32.034Z,43.97
2023-04-19T03:55:35.745Z,41.92
2023-04-19T03:56:39.401Z,42.10
2023-04-19T03:57:43.075Z,44.67
2023-04-19T03:58:46.718Z,45.15
2023-04-19T03:59:50.396Z,44.40
2023-04-19T04:00:53.976Z,44.75
2023-04-19T04:01:59.410Z,45.40
2023-04-19T04:03:03.405Z,44.97
2023-04-19T04:04:07.256Z,43.08
2023-04-19T04:05:11.497Z,43.25
2023-04-19T04:06:15.460Z,42.05
2023-04-19T04:07:19.144Z,41.80
2023-04-19T04:08:22.848Z,42.53
2023-04-19T04:09:26.616Z,41.95
2023-04-19T04:10:30.352Z,43.28
2023-04-19T04:11:34.077Z,44.22
2023-04-19T04:12:37.678Z,39.67
2023-04-19T04:13:41.440Z,41.95
2023-04-19T04:14:45.184Z,44.55
2023-04-19T04:15:48.907Z,41.80
2023-04-19T04:16:52.695Z,40.70
2023-04-19T04:17:58.044Z,41.93
2023-04-19T04:19:01.871Z,43.17
2023-04-19T04:20:06.361Z,41.85
2023-04-19T04:21:10.104Z,41.85
2023-04-19T04:22:13.778Z,44.00
2023-04-19T04:23:17.496Z,42.80
2023-04-19T04:24:21.140Z,41.30
2023-04-19T04:25:25.152Z,39.75
2023-04-19T04:26:28.896Z,45.13
2023-04-19T04:27:32.626Z,42.25
2023-04-19T04:28:36.420Z,42.63
2023-04-19T04:29:40.850Z,41.03
2023-04-19T04:30:47.300Z,42.42
2023-04-19T04:31:51.065Z,43.83
2023-04-19T04:32:54.764Z,42.90
2023-04-19T04:34:00.051Z,42.13
2023-04-19T04:35:03.859Z,43.50
2023-04-19T04:36:09.736Z,42.65
2023-04-19T04:37:13.596Z,45.03
2023-04-19T04:38:23.999Z,43.72
2023-04-19T04:39:29.390Z,41.73
2023-04-19T04:40:32.984Z,41.83
2023-04-19T04:41:36.745Z,45.50
2023-04-19T04:42:40.387Z,39.95
2023-04-19T04:43:44.014Z,40.70
2023-04-19T04:44:47.690Z,42.07
2023-04-19T04:45:51.538Z,42.35
2023-04-19T04:46:55.256Z,41.72
2023-04-19T04:47:58.991Z,45.50
2023-04-19T04:49:04.300Z,45.50
2023-04-19T04:50:09.220Z,42.37
2023-04-19T04:51:12.838Z,43.35
2023-04-19T04:52:16.678Z,40.55
2023-04-19T04:53:20.350Z,41.63
2023-04-19T04:54:24.033Z,42.53
2023-04-19T04:55:27.652Z,41.63
2023-04-19T04:56:31.482Z,41.90
2023-04-19T04:57:35.250Z,39.97
2023-04-19T04:58:38.913Z,44.13
2023-04-19T04:59:42.596Z,45.60
2023-04-19T05:00:46.306Z,43.93
2023-04-19T05:01:50.129Z,44.08
2023-04-19T05:02:54.001Z,42.28
2023-04-19T05:03:57.890Z,44.60
2023-04-19T05:05:03.244Z,41.80
2023-04-19T05:06:07.582Z,43.23
2023-04-19T05:07:11.257Z,43.60
2023-04-19T05:08:14.985Z,44.63
2023-04-19T05:09:18.698Z,43.17
2023-04-19T05:10:22.424Z,42.70
2023-04-19T05:11:26.042Z,41.93
2023-04-19T05:12:29.679Z,41.17
2023-04-19T05:13:33.343Z,43.17
2023-04-19T05:14:37.050Z,41.28
2023-04-19T05:15:40.736Z,42.58
2023-04-19T05:16:44.448Z,44.63
2023-04-19T05:17:48.202Z,46.72
2023-04-19T05:18:52.000Z,45.63
2023-04-19T05:19:55.688Z,42.55
2023-04-19T05:21:01.085Z,41.97
2023-04-19T05:22:04.944Z,39.10
2023-04-19T05:23:08.724Z,41.17
2023-04-19T05:24:12.507Z,41.38
2023-04-19T05:25:16.244Z,46.45
2023-04-19T05:26:19.993Z,44.55
2023-04-19T05:27:23.708Z,42.67
2023-04-19T05:28:27.439Z,45.45
2023-04-19T05:29:32.254Z,45.20
2023-04-19T05:30:35.988Z,45.95
2023-04-19T05:31:39.740Z,43.80
2023-04-19T05:32:43.486Z,43.00
2023-04-19T05:33:47.156Z,45.97
2023-04-19T05:34:50.798Z,47.05
2023-04-19T05:35:54.479Z,44.22
2023-04-19T05:36:59.826Z,45.35
2023-04-19T05:38:03.514Z,44.80
2023-04-19T05:39:07.233Z,44.90
2023-04-19T05:40:11.489Z,45.25
2023-04-19T05:41:15.157Z,44.55
2023-04-19T05:42:18.845Z,44.85
2023-04-19T05:43:22.521Z,46.17
2023-04-19T05:44:26.220Z,42.20
2023-04-19T05:45:29.884Z,42.75
2023-04-19T05:46:33.542Z,44.35
2023-04-19T05:47:37.267Z,45.35
2023-04-19T05:48:40.920Z,45.07
2023-04-19T05:49:44.568Z,43.80
2023-04-19T05:50:48.225Z,42.55
2023-04-19T05:51:51.916Z,45.28
2023-04-19T05:52:57.261Z,44.70
2023-04-19T05:54:01.994Z,45.40
2023-04-19T05:55:06.474Z,42.60
2023-04-19T05:56:10.086Z,43.00
2023-04-19T05:57:13.816Z,42.28
2023-04-19T05:58:17.642Z,44.40
2023-04-19T05:59:21.365Z,44.00
2023-04-19T06:00:25.180Z,46.05
2023-04-19T06:01:28.905Z,46.50
2023-04-19T06:02:32.616Z,45.35
2023-04-19T06:03:36.661Z,43.67
2023-04-19T06:04:41.617Z,45.00
2023-04-19T06:05:45.910Z,44.42
2023-04-19T06:06:49.610Z,45.25
2023-04-19T06:07:55.770Z,42.40
2023-04-19T06:09:07.515Z,43.65
2023-04-19T06:10:11.919Z,44.03
2023-04-19T06:11:26.350Z,42.63
2023-04-19T06:12:35.353Z,45.88
2023-04-19T06:13:39.005Z,44.22
2023-04-19T06:14:42.738Z,44.80
2023-04-19T06:15:46.737Z,45.77
2023-04-19T06:16:50.627Z,44.45
2023-04-19T06:17:54.842Z,42.45
2023-04-19T06:18:58.982Z,42.85
2023-04-19T06:20:02.678Z,45.13
2023-04-19T06:21:06.481Z,42.63
2023-04-19T06:22:10.252Z,40.72
2023-04-19T06:23:13.885Z,46.22
2023-04-19T06:24:19.212Z,43.53
2023-04-19T06:28:08.341Z,41.90
2023-04-19T06:29:49.776Z,41.45
2023-04-19T06:31:31.037Z,45.58
2023-04-19T06:33:11.006Z,45.45
2023-04-19T06:34:50.823Z,45.38
2023-04-19T06:36:31.186Z,43.33
2023-04-19T06:38:11.063Z,44.13
2023-04-19T06:39:51.040Z,43.65
2023-04-19T06:41:31.166Z,43.80
2023-04-19T06:43:11.996Z,45.45
2023-04-19T06:44:52.234Z,44.00
2023-04-19T06:46:32.580Z,47.10
2023-04-19T06:47:38.452Z,44.13
2023-04-19T06:48:42.386Z,44.47
2023-04-19T06:49:46.264Z,46.58
2023-04-19T06:50:50.269Z,44.50
2023-04-19T06:51:54.227Z,47.57
2023-04-19T06:52:58.243Z,47.35
2023-04-19T06:54:02.161Z,46.38
2023-04-19T06:55:07.663Z,48.00
2023-04-19T06:56:12.370Z,45.42
2023-04-19T06:57:16.402Z,46.28
2023-04-19T06:58:21.358Z,45.78
2023-04-19T06:59:28.069Z,43.38
2023-04-19T07:00:32.421Z,45.83
2023-04-19T07:01:39.187Z,46.97
2023-04-19T07:02:44.978Z,44.27
2023-04-19T07:03:49.194Z,42.72
2023-04-19T07:04:53.423Z,45.60
2023-04-19T07:05:57.407Z,46.63
2023-04-19T07:07:01.595Z,45.40
2023-04-19T07:08:05.770Z,45.30
2023-04-19T07:09:09.899Z,47.50
2023-04-19T07:10:13.833Z,44.92
2023-04-19T07:11:18.864Z,45.85
2023-04-19T07:12:24.859Z,44.53
2023-04-19T07:13:28.759Z,46.37
2023-04-19T07:14:32.711Z,44.83
2023-04-19T07:15:36.806Z,43.67
2023-04-19T07:16:42.470Z,43.72
2023-04-19T07:17:48.210Z,43.78
2023-04-19T07:18:52.159Z,42.00
2023-04-19T07:19:56.052Z,44.08
2023-04-19T07:21:00.688Z,44.47
2023-04-19T07:22:05.200Z,45.25
2023-04-19T07:23:10.404Z,44.58
2023-04-19T07:24:14.715Z,43.47
2023-04-19T07:25:18.841Z,44.55
2023-04-19T07:26:22.873Z,44.15
2023-04-19T07:27:27.110Z,46.13
2023-04-19T07:28:31.195Z,45.53
2023-04-19T07:29:37.237Z,45.28
2023-04-19T07:30:41.219Z,46.75
2023-04-19T07:31:45.238Z,45.47
2023-04-19T07:33:00.561Z,44.55
2023-04-19T07:34:04.623Z,45.92
2023-04-19T07:35:09.337Z,44.90
2023-04-19T07:36:14.453Z,44.28
2023-04-19T07:37:18.452Z,43.22
2023-04-19T07:38:23.459Z,44.03
2023-04-19T07:39:27.344Z,44.17
2023-04-19T07:40:31.218Z,45.83
2023-04-19T07:41:36.129Z,42.67
2023-04-19T07:42:40.451Z,44.65
2023-04-19T07:43:44.387Z,42.72
2023-04-19T07:44:48.442Z,42.65
2023-04-19T07:45:52.385Z,42.90
2023-04-19T07:46:56.938Z,44.13
2023-04-19T07:48:03.441Z,44.67
2023-04-19T07:49:07.391Z,44.15
2023-04-19T07:50:13.474Z,46.05
2023-04-19T07:51:19.496Z,43.28
2023-04-19T07:52:23.675Z,45.92
2023-04-19T07:53:27.648Z,45.40
2023-04-19T07:54:31.590Z,43.88
2023-04-19T07:55:35.551Z,42.42
2023-04-19T07:56:39.531Z,45.73
2023-04-19T07:57:45.448Z,43.03
2023-04-19T07:59:04.182Z,41.13
2023-04-19T08:00:13.423Z,43.83
2023-04-19T08:01:17.465Z,44.72
2023-04-19T08:02:22.524Z,43.00
2023-04-19T08:03:28.396Z,43.70
2023-04-19T08:04:32.701Z,44.83
2023-04-19T08:05:37.096Z,41.30
2023-04-19T08:06:41.064Z,40.97
2023-04-19T08:07:45.083Z,43.53
2023-04-19T08:08:50.221Z,42.05
2023-04-19T08:09:54.777Z,41.22
2023-04-19T08:11:00.162Z,44.60
2023-04-19T08:12:05.971Z,42.97
2023-04-19T08:13:09.928Z,41.53
2023-04-19T08:14:30.586Z,42.15
2023-04-19T08:16:20.271Z,44.88
2023-04-19T08:18:07.774Z,42.97
2023-04-19T08:19:13.524Z,44.27
2023-04-19T08:20:18.614Z,44.08
2023-04-19T08:21:26.054Z,39.55
2023-04-19T08:22:35.152Z,43.47
2023-04-19T08:23:47.969Z,43.30
2023-04-19T08:24:53.567Z,41.25
2023-04-19T08:25:57.678Z,39.30
2023-04-19T08:27:01.737Z,39.97
2023-04-19T08:28:06.216Z,41.80
2023-04-19T08:29:10.269Z,42.53
2023-04-19T08:30:14.772Z,41.53
2023-04-19T08:31:19.634Z,40.97
2023-04-19T08:32:23.597Z,41.53
2023-04-19T08:33:27.535Z,41.63
2023-04-19T08:34:35.341Z,41.78
2023-04-19T08:35:40.205Z,42.60
2023-04-19T08:36:51.857Z,39.40
2023-04-19T08:38:04.612Z,42.08
2023-04-19T08:39:15.073Z,41.70
2023-04-19T08:40:33.243Z,39.00
2023-04-19T08:41:37.308Z,39.80
2023-04-19T08:42:41.486Z,37.35
2023-04-19T08:43:46.058Z,36.33
2023-04-19T08:45:09.521Z,35.35
2023-04-19T08:46:16.327Z,35.90
2023-04-19T08:47:30.188Z,35.80
2023-04-19T08:48:37.846Z,35.08
2023-04-19T08:49:47.535Z,34.47
2023-04-19T08:51:04.266Z,38.33
2023-04-19T08:52:12.962Z,35.60
2023-04-19T08:53:24.705Z,34.97
2023-04-19T08:54:31.106Z,36.78
2023-04-19T08:55:35.764Z,36.33
2023-04-19T08:56:40.548Z,35.55
2023-04-19T08:57:44.557Z,32.03
2023-04-19T08:59:55.694Z,33.05
2023-04-19T09:01:00.445Z,35.22
2023-04-19T09:02:04.614Z,34.55
2023-04-19T09:03:09.767Z,36.10
2023-04-19T09:05:24.080Z,36.47
2023-04-19T09:06:28.709Z,35.10
2023-04-19T09:07:32.684Z,35.50
2023-04-19T09:08:36.624Z,36.25
2023-04-19T09:09:51.623Z,36.15
2023-04-19T09:11:03.949Z,35.47
2023-04-19T09:12:17.569Z,33.53
2023-04-19T09:13:21.730Z,37.45
2023-04-19T09:14:26.766Z,36.78
2023-04-19T09:15:38.686Z,33.37
2023-04-19T09:16:44.890Z,35.28
2023-04-19T09:18:06.538Z,35.50
2023-04-19T09:19:23.036Z,35.55
2023-04-19T09:20:46.883Z,33.95
2023-04-19T09:21:51.226Z,34.80
2023-04-19T09:23:08.778Z,34.20
2023-04-19T09:24:16.673Z,35.58
2023-04-19T09:26:35.060Z,37.50
2023-04-19T09:27:41.680Z,36.27
2023-04-19T09:28:57.867Z,34.33
2023-04-19T09:30:04.332Z,33.47
2023-04-19T09:31:33.353Z,32.47
2023-04-19T09:32:49.396Z,33.35
2023-04-19T09:33:54.929Z,32.97
2023-04-19T09:35:00.756Z,33.70
2023-04-19T09:36:08.386Z,35.13
2023-04-19T09:37:28.021Z,33.90
2023-04-19T09:38:49.815Z,34.17
2023-04-19T09:39:54.512Z,33.47
2023-04-19T09:41:16.484Z,31.73
2023-04-19T09:42:47.403Z,32.88
2023-04-19T09:45:28.230Z,32.67
2023-04-19T09:46:35.789Z,32.80
2023-04-19T09:47:43.605Z,32.92
2023-04-19T09:48:47.830Z,33.00
2023-04-19T09:50:23.984Z,31.63
2023-04-19T09:51:43.213Z,32.55
2023-04-19T09:52:49.720Z,33.87
2023-04-19T09:53:55.413Z,32.70
2023-04-19T09:55:17.674Z,32.50
2023-04-19T09:56:32.070Z,34.03
2023-04-19T09:57:39.553Z,32.55
2023-04-19T10:00:03.861Z,32.83
2023-04-19T10:01:17.492Z,34.90
2023-04-19T10:02:32.790Z,31.40
2023-04-19T10:03:38.039Z,34.15
2023-04-19T10:05:57.347Z,33.45
2023-04-19T10:08:23.068Z,27.80
2023-04-19T10:09:37.680Z,34.42
2023-04-19T10:10:49.045Z,33.50
2023-04-19T10:12:03.234Z,34.33
2023-04-19T10:13:22.556Z,33.22
2023-04-19T10:15:07.684Z,33.45
2023-04-19T10:16:19.724Z,35.88
2023-04-19T10:17:25.432Z,35.27
2023-04-19T10:18:42.172Z,35.92
2023-04-19T10:19:51.226Z,34.13
2023-04-19T10:21:00.490Z,35.60
2023-04-19T10:22:10.667Z,35.30
2023-04-19T10:23:15.443Z,34.78
2023-04-19T10:24:22.988Z,36.05
2023-04-19T10:25:33.157Z,33.33
2023-04-19T10:27:09.688Z,36.05
2023-04-19T10:28:17.361Z,35.35
2023-04-19T10:29:59.475Z,34.77
2023-04-19T10:31:08.642Z,35.00
2023-04-19T10:32:15.774Z,34.63
2023-04-19T10:33:27.886Z,34.13
2023-04-19T10:34:45.058Z,35.13
2023-04-19T10:35:54.138Z,33.10
2023-04-19T10:37:00.546Z,33.90
2023-04-19T10:38:12.484Z,35.22
2023-04-19T10:39:45.473Z,33.78
2023-04-19T10:41:00.436Z,34.05
2023-04-19T10:42:06.193Z,33.03
2023-04-19T10:43:23.318Z,32.65
2023-04-19T10:44:28.359Z,31.17
2023-04-19T10:45:38.848Z,33.78
2023-04-19T10:46:44.629Z,34.03
2023-04-19T10:47:49.142Z,33.53
2023-04-19T10:48:57.479Z,32.55
2023-04-19T10:50:04.784Z,34.58
2023-04-19T10:51:28.721Z,32.65
2023-04-19T10:52:34.309Z,34.83
2023-04-19T10:54:08.450Z,36.33
2023-04-19T10:55:19.710Z,34.83
2023-04-19T10:57:03.961Z,33.40
2023-04-19T10:58:13.074Z,34.95
2023-04-19T10:59:19.289Z,34.13
2023-04-19T11:00:30.027Z,34.20
2023-04-19T11:02:12.998Z,33.72
2023-04-19T11:03:49.619Z,32.15
2023-04-19T11:05:04.667Z,33.03
2023-04-19T11:06:18.936Z,35.30
2023-04-19T11:07:24.767Z,30.77
2023-04-19T11:08:32.691Z,29.95
2023-04-19T11:09:40.877Z,32.50
2023-04-19T11:10:48.594Z,32.50
2023-04-19T11:11:59.301Z,33.15
2023-04-19T11:13:07.081Z,30.35
2023-04-19T11:14:13.638Z,35.42
2023-04-19T11:15:22.650Z,32.03
2023-04-19T11:16:38.286Z,31.30
2023-04-19T11:18:08.846Z,34.47
2023-04-19T11:19:18.101Z,32.23
2023-04-19T11:20:26.552Z,32.58
2023-04-19T11:21:32.779Z,34.40
2023-04-19T11:22:38.099Z,33.17
2023-04-19T11:23:42.876Z,33.67
2023-04-19T11:24:54.971Z,35.03
2023-04-19T11:26:00.504Z,34.58
2023-04-19T11:27:10.812Z,35.50
2023-04-19T11:28:19.263Z,33.28
2023-04-19T11:29:23.636Z,34.03
2023-04-19T11:30:31.703Z,34.83
2023-04-19T11:31:35.815Z,36.20
2023-04-19T11:32:45.552Z,36.28
2023-04-19T11:33:49.562Z,35.85
2023-04-19T11:34:53.489Z,37.60
2023-04-19T11:35:57.610Z,36.33
2023-04-19T11:37:01.541Z,36.30
2023-04-19T11:38:26.125Z,37.42
2023-04-19T11:40:02.638Z,35.80
2023-04-19T11:41:08.215Z,32.53
2023-04-19T11:42:19.424Z,35.53
2023-04-19T11:43:23.589Z,34.38
2023-04-19T11:44:27.859Z,35.88
2023-04-19T11:45:36.603Z,38.55
2023-04-19T11:46:43.240Z,36.65
2023-04-19T11:47:50.752Z,36.45
2023-04-19T11:48:55.205Z,37.30
2023-04-19T11:50:19.110Z,35.67
2023-04-19T11:51:24.001Z,35.55
2023-04-19T11:52:36.181Z,36.17
2023-04-19T11:53:42.455Z,38.30
2023-04-19T11:54:46.684Z,37.30
2023-04-19T11:55:57.997Z,35.60
2023-04-19T11:57:03.698Z,36.47
2023-04-19T11:58:08.970Z,38.90
2023-04-19T11:59:12.823Z,35.78
2023-04-19T12:00:34.555Z,34.88
2023-04-19T12:01:38.602Z,35.83
2023-04-19T12:02:44.259Z,33.63
2023-04-19T12:03:52.891Z,37.25
2023-04-19T12:04:57.400Z,36.57
2023-04-19T12:06:03.374Z,36.88
2023-04-19T12:07:08.315Z,36.47
2023-04-19T12:08:12.946Z,34.95
2023-04-19T12:09:24.053Z,36.97
2023-04-19T12:10:28.231Z,36.00
2023-04-19T12:11:52.769Z,35.60
2023-04-19T12:12:56.719Z,36.28
2023-04-19T12:14:10.215Z,36.45
2023-04-19T12:15:21.270Z,37.55
2023-04-19T12:16:29.774Z,38.27
2023-04-19T12:17:34.475Z,36.67
2023-04-19T12:18:47.180Z,37.30
2023-04-19T12:19:51.144Z,38.42
2023-04-19T12:20:55.176Z,37.08
2023-04-19T12:22:09.861Z,38.00
2023-04-19T12:23:20.737Z,37.50
2023-04-19T12:24:24.637Z,35.78
2023-04-19T12:25:33.314Z,38.65
2023-04-19T12:26:37.595Z,39.22
2023-04-19T12:27:44.308Z,39.13
2023-04-19T12:28:49.206Z,39.13
2023-04-19T12:29:53.136Z,38.40
2023-04-19T12:30:58.583Z,38.22
2023-04-19T12:32:02.639Z,40.00
2023-04-19T12:33:07.635Z,39.17
2023-04-19T12:34:21.094Z,40.20
2023-04-19T12:35:29.408Z,40.97
2023-04-19T12:36:33.325Z,40.22
2023-04-19T12:37:37.636Z,41.10
2023-04-19T12:38:41.697Z,37.57
2023-04-19T12:39:45.732Z,36.92
2023-04-19T12:40:49.610Z,38.97
2023-04-19T12:41:53.623Z,37.40
2023-04-19T12:42:59.314Z,38.72
2023-04-19T12:44:03.250Z,39.20
2023-04-19T12:45:08.165Z,38.78
2023-04-19T12:46:12.102Z,38.58
2023-04-19T12:47:16.190Z,35.85
2023-04-19T12:48:20.241Z,37.03
2023-04-19T12:49:24.185Z,39.17
2023-04-19T12:50:28.116Z,38.35
2023-04-19T12:51:32.228Z,37.20
2023-04-19T12:52:36.720Z,36.40
2023-04-19T12:53:42.295Z,37.97
2023-04-19T12:54:46.141Z,40.25
2023-04-19T12:56:04.738Z,38.85
2023-04-19T12:57:08.697Z,39.90
2023-04-19T12:58:34.906Z,39.80
2023-04-19T12:59:43.096Z,39.78
2023-04-19T13:00:47.896Z,38.23
2023-04-19T13:01:51.889Z,39.90
2023-04-19T13:02:56.041Z,39.97
2023-04-19T13:04:00.457Z,38.72
2023-04-19T13:05:06.984Z,41.00
2023-04-19T13:06:11.099Z,38.92
2023-04-19T13:07:16.364Z,36.38
2023-04-19T13:08:20.340Z,38.60
2023-04-19T13:09:27.458Z,39.83
2023-04-19T13:10:31.388Z,38.22
2023-04-19T13:11:35.441Z,37.50
2023-04-19T13:12:39.795Z,41.97
2023-04-19T13:13:45.443Z,38.67
2023-04-19T13:14:49.635Z,41.05
2023-04-19T13:15:54.705Z,39.20
2023-04-19T13:17:00.303Z,38.38
2023-04-19T13:18:05.411Z,37.40
2023-04-19T13:19:09.767Z,39.35
2023-04-19T13:20:14.774Z,39.42
2023-04-19T13:21:19.748Z,38.63
2023-04-19T13:22:27.140Z,40.87
2023-04-19T13:23:30.979Z,40.90
2023-04-19T13:24:35.159Z,41.40
2023-04-19T13:25:39.123Z,36.80
2023-04-19T13:26:43.196Z,36.30
2023-04-19T13:27:47.237Z,38.47
2023-04-19T13:28:52.930Z,41.17
2023-04-19T13:29:57.843Z,40.92
2023-04-19T13:31:01.767Z,40.22
2023-04-19T13:32:06.145Z,39.60
2023-04-19T13:33:10.128Z,39.77
2023-04-19T13:34:14.233Z,41.50
2023-04-19T13:35:18.355Z,42.33
2023-04-19T13:36:22.651Z,39.70
2023-04-19T13:37:26.628Z,41.85
2023-04-19T13:38:30.574Z,41.10
2023-04-19T13:39:34.664Z,38.72
2023-04-19T13:40:38.661Z,40.20
2023-04-19T13:41:43.059Z,40.63
2023-04-19T13:42:46.949Z,40.17
2023-04-19T13:43:52.829Z,37.10
2023-04-19T13:44:56.787Z,39.22
2023-04-19T13:46:00.676Z,39.10
2023-04-19T13:47:05.320Z,39.92
2023-04-19T13:48:09.346Z,42.35
2023-04-19T13:49:13.325Z,41.47
2023-04-19T13:50:51.024Z,38.92
2023-04-19T13:51:55.240Z,37.83
2023-04-19T13:52:59.889Z,41.28
2023-04-19T13:54:03.850Z,42.08
2023-04-19T13:55:08.128Z,41.53
2023-04-19T13:56:12.090Z,38.70
2023-04-19T13:57:16.467Z,41.85
2023-04-19T13:58:20.442Z,38.53
2023-04-19T13:59:26.732Z,38.22
2023-04-19T14:00:32.060Z,38.58
2023-04-19T14:01:37.063Z,39.83
2023-04-19T14:02:41.915Z,42.03
2023-04-19T14:03:46.090Z,39.80
2023-04-19T14:04:50.106Z,41.67
2023-04-19T14:06:08.006Z,39.90
2023-04-19T14:07:14.778Z,37.80
2023-04-19T14:08:18.743Z,39.65
2023-04-19T14:09:23.311Z,41.10
2023-04-19T14:10:28.478Z,40.03
2023-04-19T14:11:46.057Z,39.65
2023-04-19T14:12:51.151Z,39.17
2023-04-19T14:13:55.391Z,39.45
2023-04-19T14:15:28.435Z,39.72
2023-04-19T14:16:33.592Z,38.83
2023-04-19T14:17:38.749Z,37.77
2023-04-19T14:18:43.645Z,39.50
2023-04-19T14:19:47.652Z,38.15
2023-04-19T14:20:52.125Z,39.38
2023-04-19T14:21:57.112Z,38.30
2023-04-19T14:23:01.026Z,37.00
2023-04-19T14:24:06.241Z,41.10
2023-04-19T14:25:11.112Z,39.47
2023-04-19T14:26:15.631Z,37.40
2023-04-19T14:27:20.349Z,35.80
2023-04-19T14:28:25.783Z,37.73
2023-04-19T14:29:29.753Z,35.58
2023-04-19T14:30:35.327Z,39.67
2023-04-19T14:31:40.441Z,38.03
2023-04-19T14:32:44.648Z,39.85
2023-04-19T14:33:50.199Z,38.30